Time;durP1;ratioP1;P1;durP2;ratioP2;P2;SDS_P1;SDS_P2;PMS_P1;PMS_P2;Temp;Humidity;BMP_temperature;BMP_pressure;BME280_temperature;BME280_humidity;BME280_pressure;Samples;Min_cycle;Max_cycle;Signal;HPM_P1;HPM_P2
2022/08/25 00:00:34;;;;;;;;;;;;;;;;;;4995035;28;20043;-89
2022/08/25 00:02:59;;;;;;;;;;;;;;;;;;4996289;28;20282;-88
2022/08/25 00:05:25;;;;;;;;;;;;;;;;;;4987855;28;19911;-88
2022/08/25 00:07:50;;;;;;;;;;;;;;;;;;5000029;28;20357;-89
2022/08/25 00:10:15;;;;;;;;;;;;;;;;;;4985680;28;20303;-89
2022/08/25 00:12:40;;;;;;;;;;;;;;;;;;4996082;28;19909;-88
2022/08/25 00:15:05;;;;;;;;;;;;;;;;;;4995420;28;19909;-90
2022/08/25 00:17:31;;;;;;;;;;;;;;;;;;4993226;28;19913;-88
2022/08/25 00:19:56;;;;;;;;;;;;;;;;;;5012000;28;19997;-89
2022/08/25 00:22:21;;;;;;;;;;;;;;;;;;5015263;28;19929;-89
2022/08/25 00:24:46;;;;;;;;;;;;;;;;;;4999749;28;19913;-89
2022/08/25 00:27:11;;;;;;;;;;;;;;;;;;4995826;28;19977;-88
2022/08/25 00:29:37;;;;;;;;;;;;;;;;;;4991511;28;20727;-88
2022/08/25 00:32:02;;;;;;;;;;;;;;;;;;4988930;28;19910;-89
2022/08/25 00:34:28;;;;;;;;;;;;;;;;;;5012317;28;19991;-89
2022/08/25 00:36:53;;;;;;;;;;;;;;;;;;4995286;28;19967;-88
2022/08/25 00:39:19;;;;;;;;;;;;;;;;;;4995206;28;20398;-87
2022/08/25 00:41:44;;;;;;;;;;;;;;;;;;4994072;28;19996;-89
2022/08/25 00:44:10;;;;;;;;;;;;;;;;;;5012323;28;19956;-89
2022/08/25 00:46:35;;;;;;;;;;;;;;;;;;4995222;28;20020;-90
2022/08/25 00:49:00;;;;;;;;;;;;;;;;;;4994843;28;19909;-89
2022/08/25 00:51:25;;;;;;;;;;;;;;;;;;4993874;28;20477;-89
2022/08/25 00:53:51;;;;;;;;;;;;;;;;;;4995355;28;19913;-89
2022/08/25 00:56:16;;;;;;;;;;;;;;;;;;4993903;28;19905;-88
2022/08/25 00:58:41;;;;;;;;;;;;;;;;;;4994587;28;19910;-89
2022/08/25 01:01:06;;;;;;;;;;;;;;;;;;4994138;28;20020;-89
2022/08/25 01:03:32;;;;;;;;;;;;;;;;;;4994402;28;19924;-88
2022/08/25 01:05:58;;;;;;;;;;;;;;;;;;4984766;28;19952;-89
2022/08/25 01:08:24;;;;;;;;;;;;;;;;;;4984586;28;19914;-89
2022/08/25 01:10:49;;;;;;;;;;;;;;;;;;4995210;28;20368;-88
2022/08/25 01:13:16;;;;;;;;;;;;;;;;;;4993706;28;19909;-89
2022/08/25 01:15:42;;;;;;;;;;;;;;;;;;5011814;28;19959;-90
2022/08/25 01:18:07;;;;;;;;;;;;;;;;;;4995065;28;19913;-89
2022/08/25 01:20:33;;;;;;;;;;;;;;;;;;4994863;28;19963;-89
2022/08/25 01:22:58;;;;;;;;;;;;;;;;;;4980476;28;19917;-88
2022/08/25 01:25:23;;;;;;;;;;;;;;;;;;4994639;28;19910;-88
2022/08/25 01:27:49;;;;;;;;;;;;;;;;;;4995200;28;20293;-89
2022/08/25 01:30:14;;;;;;;;;;;;;;;;;;4994460;28;20015;-89
2022/08/25 01:32:39;;;;;;;;;;;;;;;;;;4992372;28;19914;-88
2022/08/25 01:35:04;;;;;;;;;;;;;;;;;;5007199;28;19910;-89
2022/08/25 01:37:29;;;;;;;;;;;;;;;;;;4994928;28;19913;-89
2022/08/25 01:39:54;;;;;;;;;;;;;;;;;;4994017;28;19906;-89
2022/08/25 01:42:20;;;;;;;;;;;;;;;;;;5002624;28;19952;-89
2022/08/25 01:44:45;;;;;;;;;;;;;;;;;;4990912;28;19920;-89
2022/08/25 01:47:10;;;;;;;;;;;;;;;;;;5010705;28;20320;-90
2022/08/25 01:49:35;;;;;;;;;;;;;;;;;;5010874;28;19912;-89
2022/08/25 01:52:00;;;;;;;;;;;;;;;;;;4994825;28;20331;-89
2022/08/25 01:54:25;;;;;;;;;;;;;;;;;;4995522;28;19944;-89
2022/08/25 01:56:51;;;;;;;;;;;;;;;;;;5002267;28;20381;-89
2022/08/25 01:59:16;;;;;;;;;;;;;;;;;;4994673;28;20432;-89
2022/08/25 02:01:41;;;;;;;;;;;;;;;;;;5010500;28;19933;-89
2022/08/25 02:04:06;;;;;;;;;;;;;;;;;;4994803;28;20274;-89
2022/08/25 02:06:31;;;;;;;;;;;;;;;;;;4995760;28;20028;-88
2022/08/25 02:08:57;;;;;;;;;;;;;;;;;;4998439;28;19909;-88
2022/08/25 02:11:23;;;;;;;;;;;;;;;;;;4998715;28;19968;-88
2022/08/25 02:13:48;;;;;;;;;;;;;;;;;;4997679;28;19910;-88
2022/08/25 02:16:13;;;;;;;;;;;;;;;;;;4991682;28;20008;-88
2022/08/25 02:18:38;;;;;;;;;;;;;;;;;;4998564;28;19944;-88
2022/08/25 02:21:03;;;;;;;;;;;;;;;;;;4987659;28;19909;-88
2022/08/25 02:23:28;;;;;;;;;;;;;;;;;;5014931;28;19913;-89
2022/08/25 02:25:56;;;;;;;;;;;;;;;;;;5005820;28;19965;-88
2022/08/25 02:28:21;;;;;;;;;;;;;;;;;;5014239;28;19905;-88
2022/08/25 02:30:46;;;;;;;;;;;;;;;;;;4997128;28;20001;-89
2022/08/25 02:33:12;;;;;;;;;;;;;;;;;;4998427;28;20393;-89
2022/08/25 02:35:37;;;;;;;;;;;;;;;;;;4998495;28;20337;-88
2022/08/25 02:38:02;;;;;;;;;;;;;;;;;;4994845;28;19909;-89
2022/08/25 02:40:27;;;;;;;;;;;;;;;;;;4998138;28;19914;-88
2022/08/25 02:42:52;;;;;;;;;;;;;;;;;;4996930;28;19956;-88
2022/08/25 02:45:17;;;;;;;;;;;;;;;;;;5005509;28;19910;-88
2022/08/25 02:47:43;;;;;;;;;;;;;;;;;;4999537;28;19913;-88
2022/08/25 02:50:08;;;;;;;;;;;;;;;;;;4993435;28;19909;-88
2022/08/25 02:52:34;;;;;;;;;;;;;;;;;;4998902;28;19956;-88
2022/08/25 02:54:59;;;;;;;;;;;;;;;;;;4998430;28;19944;-89
2022/08/25 02:57:24;;;;;;;;;;;;;;;;;;4998077;28;20277;-88
2022/08/25 02:59:50;;;;;;;;;;;;;;;;;;4995099;28;19960;-88
2022/08/25 03:02:15;;;;;;;;;;;;;;;;;;5012527;28;20353;-89
2022/08/25 03:04:40;;;;;;;;;;;;;;;;;;5002924;28;19920;-88
2022/08/25 03:07:06;;;;;;;;;;;;;;;;;;5010762;28;20004;-89
2022/08/25 03:09:31;;;;;;;;;;;;;;;;;;5016719;28;20432;-88
2022/08/25 03:11:56;;;;;;;;;;;;;;;;;;5015724;28;19905;-89
2022/08/25 03:14:21;;;;;;;;;;;;;;;;;;5014738;28;20321;-89
2022/08/25 03:16:46;;;;;;;;;;;;;;;;;;4995001;28;20378;-88
2022/08/25 03:19:11;;;;;;;;;;;;;;;;;;5011666;28;20261;-90
2022/08/25 03:21:37;;;;;;;;;;;;;;;;;;4997674;28;19909;-88
2022/08/25 03:24:02;;;;;;;;;;;;;;;;;;4997603;28;19917;-88
2022/08/25 03:29:12;;;;;;;;;;;;;;;;;;5006235;28;20411;-89
2022/08/25 03:31:37;;;;;;;;;;;;;;;;;;5014620;28;19909;-87
2022/08/25 03:34:03;;;;;;;;;;;;;;;;;;4994450;28;19910;-88
2022/08/25 03:36:28;;;;;;;;;;;;;;;;;;4998131;28;19905;-88
2022/08/25 03:38:53;;;;;;;;;;;;;;;;;;4989341;28;19909;-87
2022/08/25 03:41:19;;;;;;;;;;;;;;;;;;4997739;28;19959;-89
2022/08/25 03:43:44;;;;;;;;;;;;;;;;;;5014370;28;19913;-88
2022/08/25 03:46:09;;;;;;;;;;;;;;;;;;5014513;28;19917;-88
2022/08/25 03:48:34;;;;;;;;;;;;;;;;;;4997964;28;19972;-88
2022/08/25 03:51:00;;;;;;;;;;;;;;;;;;4979362;28;19912;-88
2022/08/25 03:53:25;;;;;;;;;;;;;;;;;;4967677;28;19914;-88
2022/08/25 03:55:50;;;;;;;;;;;;;;;;;;4997959;28;20393;-88
2022/08/25 03:58:16;;;;;;;;;;;;;;;;;;4992714;28;19909;-88
2022/08/25 04:00:42;;;;;;;;;;;;;;;;;;4997106;28;19960;-89
2022/08/25 04:03:07;;;;;;;;;;;;;;;;;;5005355;28;19917;-89
2022/08/25 04:05:32;;;;;;;;;;;;;;;;;;4997414;28;19909;-88
2022/08/25 04:07:57;;;;;;;;;;;;;;;;;;4997045;28;19910;-87
2022/08/25 04:10:22;;;;;;;;;;;;;;;;;;4996434;28;19969;-87
2022/08/25 04:12:48;;;;;;;;;;;;;;;;;;5003956;28;19910;-88
2022/08/25 04:15:13;;;;;;;;;;;;;;;;;;4995380;28;20266;-88
2022/08/25 04:17:38;;;;;;;;;;;;;;;;;;5005864;28;20358;-88
2022/08/25 04:20:03;;;;;;;;;;;;;;;;;;4986849;28;19943;-88
2022/08/25 04:22:29;;;;;;;;;;;;;;;;;;4991960;28;19964;-88
2022/08/25 04:24:55;;;;;;;;;;;;;;;;;;4992770;28;19915;-88
2022/08/25 04:27:20;;;;;;;;;;;;;;;;;;4988821;28;20009;-89
2022/08/25 04:29:45;;;;;;;;;;;;;;;;;;4996305;28;20020;-88
2022/08/25 04:32:10;;;;;;;;;;;;;;;;;;4999005;28;19936;-89
2022/08/25 04:34:35;;;;;;;;;;;;;;;;;;4996729;28;19968;-87
2022/08/25 04:37:01;;;;;;;;;;;;;;;;;;4994951;28;19914;-88
2022/08/25 04:39:26;;;;;;;;;;;;;;;;;;5007706;28;19906;-88
2022/08/25 04:41:51;;;;;;;;;;;;;;;;;;4997215;28;20713;-88
2022/08/25 04:44:17;;;;;;;;;;;;;;;;;;5002810;28;19917;-88
2022/08/25 04:46:42;;;;;;;;;;;;;;;;;;4997076;28;19936;-90
2022/08/25 04:49:07;;;;;;;;;;;;;;;;;;4997016;28;20059;-88
2022/08/25 04:51:32;;;;;;;;;;;;;;;;;;4996692;28;19969;-87
2022/08/25 04:53:57;;;;;;;;;;;;;;;;;;5013803;28;19913;-88
2022/08/25 04:56:26;;;;;;;;;;;;;;;;;;4986547;28;19920;-88
2022/08/25 04:58:51;;;;;;;;;;;;;;;;;;4997429;28;19909;-89
2022/08/25 05:01:16;;;;;;;;;;;;;;;;;;5011632;28;19920;-88
2022/08/25 05:03:41;;;;;;;;;;;;;;;;;;4995121;28;20611;-88
2022/08/25 05:06:06;;;;;;;;;;;;;;;;;;4984535;28;20372;-87
2022/08/25 05:08:31;;;;;;;;;;;;;;;;;;4997537;28;20015;-88
2022/08/25 05:10:57;;;;;;;;;;;;;;;;;;5013466;28;19913;-88
2022/08/25 05:13:22;;;;;;;;;;;;;;;;;;5003437;28;19909;-88
2022/08/25 05:15:50;;;;;;;;;;;;;;;;;;4994295;28;19913;-87
2022/08/25 05:18:15;;;;;;;;;;;;;;;;;;4984681;28;20341;-88
2022/08/25 05:20:40;;;;;;;;;;;;;;;;;;4995599;28;19963;-88
2022/08/25 05:23:06;;;;;;;;;;;;;;;;;;5001723;28;19948;-88
2022/08/25 05:25:31;;;;;;;;;;;;;;;;;;5014473;23;19926;-77
2022/08/25 05:27:56;;;;;;;;;;;;;;;;;;4966420;28;19913;-77
2022/08/25 05:30:21;;;;;;;;;;;;;;;;;;4965836;28;19910;-75
2022/08/25 05:32:46;;;;;;;;;;;;;;;;;;4982427;28;19910;-75
2022/08/25 05:35:11;;;;;;;;;;;;;;;;;;4999029;28;19914;-75
2022/08/25 05:37:37;;;;;;;;;;;;;;;;;;4958561;28;19910;-76
2022/08/25 05:40:02;;;;;;;;;;;;;;;;;;4966262;28;19914;-75
2022/08/25 05:42:27;;;;;;;;;;;;;;;;;;4968438;28;19910;-76
2022/08/25 05:44:52;;;;;;;;;;;;;;;;;;5003000;28;19918;-75
2022/08/25 05:47:18;;;;;;;;;;;;;;;;;;4969939;28;19946;-76
2022/08/25 05:49:43;;;;;;;;;;;;;;;;;;4985574;28;19910;-76
2022/08/25 05:52:08;;;;;;;;;;;;;;;;;;4970619;28;19953;-75
2022/08/25 05:54:33;;;;;;;;;;;;;;;;;;4969628;28;20008;-76
2022/08/25 05:56:59;;;;;;;;;;;;;;;;;;4985830;28;19906;-76
2022/08/25 05:59:25;;;;;;;;;;;;;;;;;;4969613;28;20274;-77
2022/08/25 06:04:34;;;;;;;;;;;;;;;;;;4967664;28;19914;-77
2022/08/25 06:06:59;;;;;;;;;;;;;;;;;;4970016;28;19906;-76
2022/08/25 06:09:25;;;;;;;;;;;;;;;;;;5001441;28;19938;-77
2022/08/25 06:11:50;;;;;;;;;;;;;;;;;;4970127;28;20001;-77
2022/08/25 06:14:15;;;;;;;;;;;;;;;;;;4968576;28;20391;-76
2022/08/25 06:16:40;;;;;;;;;;;;;;;;;;4984418;28;19905;-76
2022/08/25 06:19:06;;;;;;;;;;;;;;;;;;4983961;28;20387;-76
2022/08/25 06:21:31;;;;;;;;;;;;;;;;;;4968146;28;20376;-75
2022/08/25 06:23:56;;;;;;;;;;;;;;;;;;5001217;28;19976;-77
2022/08/25 06:26:22;;;;;;;;;;;;;;;;;;4969541;28;19921;-77
2022/08/25 06:28:47;;;;;;;;;;;;;;;;;;4969047;28;20287;-75
2022/08/25 06:31:12;;;;;;;;;;;;;;;;;;4983552;28;19925;-77
2022/08/25 06:33:38;;;;;;;;;;;;;;;;;;4968074;28;20367;-75
2022/08/25 06:36:03;;;;;;;;;;;;;;;;;;4983308;28;19906;-76
2022/08/25 06:38:28;;;;;;;;;;;;;;;;;;4969163;28;20404;-76
2022/08/25 06:40:55;;;;;;;;;;;;;;;;;;4968152;28;19913;-77
2022/08/25 06:43:21;;;;;;;;;;;;;;;;;;4968385;28;19914;-77
2022/08/25 06:45:47;;;;;;;;;;;;;;;;;;4969437;28;20418;-76
2022/08/25 06:48:12;;;;;;;;;;;;;;;;;;4969899;28;20396;-78
2022/08/25 06:50:38;;;;;;;;;;;;;;;;;;4983395;28;19910;-77
2022/08/25 06:53:03;;;;;;;;;;;;;;;;;;4963743;28;19921;-76
2022/08/25 06:55:28;;;;;;;;;;;;;;;;;;4984239;28;19917;-76
2022/08/25 06:57:53;;;;;;;;;;;;;;;;;;4969362;28;20386;-76
2022/08/25 07:00:19;;;;;;;;;;;;;;;;;;4969793;28;19949;-77
2022/08/25 07:02:44;;;;;;;;;;;;;;;;;;4967615;28;20441;-76
2022/08/25 07:05:09;;;;;;;;;;;;;;;;;;4983692;28;19906;-76
2022/08/25 07:07:35;;;;;;;;;;;;;;;;;;4968578;28;19913;-76
2022/08/25 07:10:00;;;;;;;;;;;;;;;;;;4967133;28;20386;-76
2022/08/25 07:12:25;;;;;;;;;;;;;;;;;;4983341;28;19914;-77
2022/08/25 07:14:50;;;;;;;;;;;;;;;;;;4983630;28;19910;-75
2022/08/25 07:17:16;;;;;;;;;;;;;;;;;;4967317;28;20268;-76
2022/08/25 07:19:41;;;;;;;;;;;;;;;;;;4966593;28;20152;-76
2022/08/25 07:22:06;;;;;;;;;;;;;;;;;;4969093;28;20034;-76
2022/08/25 07:24:31;;;;;;;;;;;;;;;;;;4983707;28;20685;-75
2022/08/25 07:26:57;;;;;;;;;;;;;;;;;;4983484;28;20016;-76
2022/08/25 07:29:23;;;;;;;;;;;;;;;;;;4999534;28;20000;-76
2022/08/25 07:31:48;;;;;;;;;;;;;;;;;;4968700;28;19968;-77
2022/08/25 07:36:57;;;;;;;;;;;;;;;;;;4964218;28;20481;-77
2022/08/25 07:39:22;;;;;;;;;;;;;;;;;;4967544;28;19957;-77
2022/08/25 07:41:47;;;;;;;;;;;;;;;;;;4982641;28;19910;-77
2022/08/25 07:44:13;;;;;;;;;;;;;;;;;;4968134;28;19914;-77
2022/08/25 07:46:38;;;;;;;;;;;;;;;;;;4967909;28;19909;-76
2022/08/25 07:49:04;;;;;;;;;;;;;;;;;;4967251;28;19910;-76
2022/08/25 07:51:29;;;;;;;;;;;;;;;;;;4999568;28;19977;-77
2022/08/25 07:53:54;;;;;;;;;;;;;;;;;;5000254;28;19922;-77
2022/08/25 07:56:19;;;;;;;;;;;;;;;;;;4967865;28;19910;-76
2022/08/25 07:58:44;;;;;;;;;;;;;;;;;;4969460;28;19976;-76
2022/08/25 08:01:10;;;;;;;;;;;;;;;;;;5000458;28;19917;-76
2022/08/25 08:03:35;;;;;;;;;;;;;;;;;;4967636;28;19910;-76
2022/08/25 08:06:00;;;;;;;;;;;;;;;;;;4967536;28;20805;-76
2022/08/25 08:08:25;;;;;;;;;;;;;;;;;;4983165;28;20726;-77
2022/08/25 08:10:51;;;;;;;;;;;;;;;;;;4966645;28;19917;-77
2022/08/25 08:13:16;;;;;;;;;;;;;;;;;;4966870;28;20272;-77
2022/08/25 08:15:41;;;;;;;;;;;;;;;;;;4958845;28;19914;-77
2022/08/25 08:18:07;;;;;;;;;;;;;;;;;;4968183;28;19906;-78
2022/08/25 08:20:33;;;;;;;;;;;;;;;;;;4967414;28;19969;-77
2022/08/25 08:22:58;;;;;;;;;;;;;;;;;;4966985;28;19910;-77
2022/08/25 08:25:23;;;;;;;;;;;;;;;;;;4982202;28;19928;-77
2022/08/25 08:27:49;;;;;;;;;;;;;;;;;;4966271;28;19964;-78
2022/08/25 08:30:14;;;;;;;;;;;;;;;;;;4967538;28;19989;-77
2022/08/25 08:32:40;;;;;;;;;;;;;;;;;;4967728;28;20423;-77
2022/08/25 08:35:05;;;;;;;;;;;;;;;;;;4982933;28;20809;-77
2022/08/25 08:37:30;;;;;;;;;;;;;;;;;;4966646;28;19906;-77
2022/08/25 08:39:56;;;;;;;;;;;;;;;;;;4967464;28;19918;-76
2022/08/25 08:42:21;;;;;;;;;;;;;;;;;;4967427;28;20319;-78
2022/08/25 08:44:48;;;;;;;;;;;;;;;;;;4966350;28;19928;-77
2022/08/25 08:47:13;;;;;;;;;;;;;;;;;;4967657;28;19906;-76
2022/08/25 08:49:39;;;;;;;;;;;;;;;;;;4965965;28;19910;-77
2022/08/25 08:52:04;;;;;;;;;;;;;;;;;;4961459;28;20004;-76
2022/08/25 08:54:29;;;;;;;;;;;;;;;;;;4966348;28;19921;-77
2022/08/25 08:56:54;;;;;;;;;;;;;;;;;;4958392;28;19906;-78
2022/08/25 08:59:20;;;;;;;;;;;;;;;;;;4965186;28;19910;-78
2022/08/25 09:01:45;;;;;;;;;;;;;;;;;;4965555;28;19929;-78
2022/08/25 09:04:10;;;;;;;;;;;;;;;;;;4966133;28;20004;-77
2022/08/25 09:06:36;;;;;;;;;;;;;;;;;;4970155;28;20434;-77
2022/08/25 09:09:01;;;;;;;;;;;;;;;;;;4968313;28;20009;-78
2022/08/25 09:11:26;;;;;;;;;;;;;;;;;;4998519;28;19921;-77
2022/08/25 09:13:51;;;;;;;;;;;;;;;;;;4967337;28;19918;-78
2022/08/25 09:19:14;;;;;;;;;;;;;;;;;;4960448;28;19909;-78
2022/08/25 09:21:39;;;;;;;;;;;;;;;;;;4972360;28;19929;-76
2022/08/25 09:24:04;;;;;;;;;;;;;;;;;;4974297;28;19961;-78
2022/08/25 09:26:30;;;;;;;;;;;;;;;;;;4973958;28;20663;-77
2022/08/25 09:28:55;;;;;;;;;;;;;;;;;;4975646;28;19910;-78
2022/08/25 09:31:20;;;;;;;;;;;;;;;;;;4988695;28;19906;-78
2022/08/25 09:33:45;;;;;;;;;;;;;;;;;;4970790;28;20855;-77
2022/08/25 09:36:10;;;;;;;;;;;;;;;;;;4986798;28;19917;-76
2022/08/25 09:38:35;;;;;;;;;;;;;;;;;;4973585;28;20430;-77
2022/08/25 09:41:01;;;;;;;;;;;;;;;;;;4970135;28;20327;-76
2022/08/25 09:43:27;;;;;;;;;;;;;;;;;;4970851;28;19922;-76
2022/08/25 09:45:52;;;;;;;;;;;;;;;;;;4971529;28;20327;-77
2022/08/25 09:48:17;;;;;;;;;;;;;;;;;;4962021;28;19991;-77
2022/08/25 09:50:42;;;;;;;;;;;;;;;;;;4969564;28;19922;-76
2022/08/25 09:53:07;;;;;;;;;;;;;;;;;;4971287;28;19946;-76
2022/08/25 09:55:33;;;;;;;;;;;;;;;;;;4971284;28;19913;-76
2022/08/25 09:57:58;;;;;;;;;;;;;;;;;;4970256;28;19910;-77
2022/08/25 10:00:23;;;;;;;;;;;;;;;;;;4986666;28;19969;-76
2022/08/25 10:02:48;;;;;;;;;;;;;;;;;;4969199;28;19917;-76
2022/08/25 10:05:13;;;;;;;;;;;;;;;;;;4971613;28;19914;-77
2022/08/25 10:07:39;;;;;;;;;;;;;;;;;;4986344;28;19910;-77
2022/08/25 10:10:06;;;;;;;;;;;;;;;;;;4969284;28;20359;-77
2022/08/25 10:12:31;;;;;;;;;;;;;;;;;;4960912;28;19913;-76
2022/08/25 10:14:56;;;;;;;;;;;;;;;;;;4969162;28;19913;-75
2022/08/25 10:17:23;;;;;;;;;;;;;;;;;;4969095;28;19949;-76
2022/08/25 10:19:49;;;;;;;;;;;;;;;;;;4968888;28;20367;-77
2022/08/25 10:22:14;;;;;;;;;;;;;;;;;;4984986;28;19917;-75
2022/08/25 10:24:39;;;;;;;;;;;;;;;;;;4968628;28;19965;-77
2022/08/25 10:27:05;;;;;;;;;;;;;;;;;;4984066;28;19917;-76
2022/08/25 10:29:30;;;;;;;;;;;;;;;;;;4969312;28;20703;-75
2022/08/25 10:31:55;;;;;;;;;;;;;;;;;;4969703;28;19918;-77
2022/08/25 10:34:20;;;;;;;;;;;;;;;;;;4970053;28;19906;-76
2022/08/25 10:36:45;;;;;;;;;;;;;;;;;;4969953;28;19918;-75
2022/08/25 10:39:10;;;;;;;;;;;;;;;;;;4984006;28;19910;-76
2022/08/25 10:41:36;;;;;;;;;;;;;;;;;;4968359;28;19957;-76
2022/08/25 10:44:01;;;;;;;;;;;;;;;;;;4968436;28;19914;-76
2022/08/25 10:46:26;;;;;;;;;;;;;;;;;;4969832;28;19949;-76
2022/08/25 10:48:51;;;;;;;;;;;;;;;;;;4984783;28;19906;-76
2022/08/25 10:51:16;;;;;;;;;;;;;;;;;;4984230;28;19910;-77
2022/08/25 10:53:42;;;;;;;;;;;;;;;;;;4969565;28;19906;-76
2022/08/25 10:56:07;;;;;;;;;;;;;;;;;;4968211;28;19910;-77
2022/08/25 10:58:32;;;;;;;;;;;;;;;;;;4952363;28;20386;-77
2022/08/25 11:00:58;;;;;;;;;;;;;;;;;;4996080;28;19910;-77
2022/08/25 11:03:23;;;;;;;;;;;;;;;;;;4960530;28;19913;-76
2022/08/25 11:05:48;;;;;;;;;;;;;;;;;;4968274;28;19910;-77
2022/08/25 11:08:13;;;;;;;;;;;;;;;;;;4984368;28;20029;-76
2022/08/25 11:10:38;;;;;;;;;;;;;;;;;;4967809;28;19933;-77
2022/08/25 11:13:04;;;;;;;;;;;;;;;;;;4969404;28;19910;-78
2022/08/25 11:15:29;;;;;;;;;;;;;;;;;;4971426;28;19914;-77
2022/08/25 11:17:54;;;;;;;;;;;;;;;;;;4969828;28;19906;-78
2022/08/25 11:20:19;;;;;;;;;;;;;;;;;;5003665;28;20088;-77
2022/08/25 11:22:45;;;;;;;;;;;;;;;;;;4971083;28;20487;-77
2022/08/25 11:25:10;;;;;;;;;;;;;;;;;;4971826;28;19925;-78
2022/08/25 11:27:35;;;;;;;;;;;;;;;;;;4973344;28;20428;-76
2022/08/25 11:30:00;;;;;;;;;;;;;;;;;;4971871;28;19965;-77
2022/08/25 11:32:25;;;;;;;;;;;;;;;;;;4973056;28;19910;-78
2022/08/25 11:34:51;;;;;;;;;;;;;;;;;;4971658;28;20012;-77
2022/08/25 11:37:16;;;;;;;;;;;;;;;;;;4987188;28;20012;-75
2022/08/25 11:39:41;;;;;;;;;;;;;;;;;;4962887;28;20286;-75
2022/08/25 11:42:06;;;;;;;;;;;;;;;;;;4972624;28;19950;-76
2022/08/25 11:44:31;;;;;;;;;;;;;;;;;;4987666;28;20319;-76
2022/08/25 11:46:56;;;;;;;;;;;;;;;;;;4971362;28;20283;-77
2022/08/25 11:49:22;;;;;;;;;;;;;;;;;;4970827;28;19965;-74
2022/08/25 11:51:47;;;;;;;;;;;;;;;;;;4970833;28;20045;-77
2022/08/25 11:54:12;;;;;;;;;;;;;;;;;;4972209;28;19910;-75
2022/08/25 11:56:37;;;;;;;;;;;;;;;;;;4971061;28;19910;-78
2022/08/25 11:59:04;;;;;;;;;;;;;;;;;;4962282;28;20272;-77
2022/08/25 12:01:29;;;;;;;;;;;;;;;;;;4970783;28;19906;-78
2022/08/25 12:03:54;;;;;;;;;;;;;;;;;;4971794;28;19921;-77
2022/08/25 12:06:20;;;;;;;;;;;;;;;;;;4971286;28;19913;-78
2022/08/25 12:08:45;;;;;;;;;;;;;;;;;;4971268;28;19917;-78
2022/08/25 12:11:13;;;;;;;;;;;;;;;;;;4969873;28;19912;-77
2022/08/25 12:13:38;;;;;;;;;;;;;;;;;;4987090;28;19910;-78
2022/08/25 12:16:04;;;;;;;;;;;;;;;;;;4971471;28;19948;-78
2022/08/25 12:18:29;;;;;;;;;;;;;;;;;;5003431;28;20367;-79
2022/08/25 12:20:57;;;;;;;;;;;;;;;;;;4970915;28;19906;-77
2022/08/25 12:23:22;;;;;;;;;;;;;;;;;;4968714;28;20368;-81
2022/08/25 12:25:48;;;;;;;;;;;;;;;;;;4966541;28;19914;-78
2022/08/25 12:28:13;;;;;;;;;;;;;;;;;;5001621;28;19910;-77
2022/08/25 12:30:38;;;;;;;;;;;;;;;;;;4971130;28;20001;-79
2022/08/25 12:33:03;;;;;;;;;;;;;;;;;;4969616;28;19909;-76
2022/08/25 12:35:29;;;;;;;;;;;;;;;;;;4969682;28;20312;-78
2022/08/25 12:37:54;;;;;;;;;;;;;;;;;;4970705;28;19914;-78
2022/08/25 12:40:19;;;;;;;;;;;;;;;;;;5001669;28;19949;-77
2022/08/25 12:42:44;;;;;;;;;;;;;;;;;;4966916;28;20445;-78
2022/08/25 12:45:12;;;;;;;;;;;;;;;;;;4983344;28;19914;-77
2022/08/25 12:47:38;;;;;;;;;;;;;;;;;;4970598;28;19964;-76
2022/08/25 12:50:03;;;;;;;;;;;;;;;;;;4999063;28;19906;-77
2022/08/25 12:52:29;;;;;;;;;;;;;;;;;;4970242;28;20106;-78
2022/08/25 12:54:54;;;;;;;;;;;;;;;;;;4983659;28;20275;-77
2022/08/25 12:57:19;;;;;;;;;;;;;;;;;;4982688;28;19910;-78
2022/08/25 12:59:44;;;;;;;;;;;;;;;;;;4983427;28;19960;-78
2022/08/25 13:02:10;;;;;;;;;;;;;;;;;;5000010;28;20358;-78
2022/08/25 13:04:35;;;;;;;;;;;;;;;;;;4969369;28;20066;-78
2022/08/25 13:07:00;;;;;;;;;;;;;;;;;;4969226;28;19973;-76
2022/08/25 13:09:26;;;;;;;;;;;;;;;;;;4969362;28;19945;-77
2022/08/25 13:11:51;;;;;;;;;;;;;;;;;;4976855;28;19914;-75
2022/08/25 13:14:16;;;;;;;;;;;;;;;;;;4973698;28;19960;-77
2022/08/25 13:16:41;;;;;;;;;;;;;;;;;;4970188;28;19933;-77
2022/08/25 13:19:07;;;;;;;;;;;;;;;;;;4985688;28;19906;-76
2022/08/25 13:21:32;;;;;;;;;;;;;;;;;;4968879;28;20359;-77
2022/08/25 13:23:57;;;;;;;;;;;;;;;;;;4968698;28;19936;-78
2022/08/25 13:26:22;;;;;;;;;;;;;;;;;;5000920;28;19968;-78
2022/08/25 13:28:47;;;;;;;;;;;;;;;;;;4967345;28;20434;-78
2022/08/25 13:31:14;;;;;;;;;;;;;;;;;;5000408;28;19941;-76
2022/08/25 13:33:39;;;;;;;;;;;;;;;;;;4968588;28;19925;-77
2022/08/25 13:38:48;;;;;;;;;;;;;;;;;;4967135;28;19914;-78
2022/08/25 13:41:13;;;;;;;;;;;;;;;;;;4967273;28;20260;-76
2022/08/25 13:43:38;;;;;;;;;;;;;;;;;;4967080;28;20394;-76
2022/08/25 13:46:04;;;;;;;;;;;;;;;;;;4968535;28;20365;-77
2022/08/25 13:48:29;;;;;;;;;;;;;;;;;;4968554;28;19961;-77
2022/08/25 13:50:54;;;;;;;;;;;;;;;;;;5002026;28;19906;-78
2022/08/25 13:53:20;;;;;;;;;;;;;;;;;;4969091;28;19914;-78
2022/08/25 13:55:46;;;;;;;;;;;;;;;;;;4970846;28;20679;-77
2022/08/25 13:58:12;;;;;;;;;;;;;;;;;;4984406;28;19917;-77
2022/08/25 14:00:37;;;;;;;;;;;;;;;;;;4968903;28;19906;-77
2022/08/25 14:03:03;;;;;;;;;;;;;;;;;;4979970;23;19964;-85
2022/08/25 14:05:28;;;;;;;;;;;;;;;;;;5027697;28;20012;-85
2022/08/25 14:07:53;;;;;;;;;;;;;;;;;;4993043;28;19909;-87
2022/08/25 14:10:19;;;;;;;;;;;;;;;;;;4976812;28;20271;-86
2022/08/25 14:12:45;;;;;;;;;;;;;;;;;;4992988;28;19910;-87
2022/08/25 14:15:10;;;;;;;;;;;;;;;;;;4993215;28;19906;-86
2022/08/25 14:17:35;;;;;;;;;;;;;;;;;;4993006;28;19910;-87
2022/08/25 14:20:00;;;;;;;;;;;;;;;;;;4992460;28;19975;-88
2022/08/25 14:22:25;;;;;;;;;;;;;;;;;;4992719;28;19920;-87
2022/08/25 14:24:50;;;;;;;;;;;;;;;;;;4976491;28;20000;-87
2022/08/25 14:27:17;;;;;;;;;;;;;;;;;;4993376;28;19956;-87
2022/08/25 14:29:45;;;;;;;;;;;;;;;;;;4977214;28;20012;-89
2022/08/25 14:32:11;;;;;;;;;;;;;;;;;;4994304;28;19909;-88
2022/08/25 14:34:36;;;;;;;;;;;;;;;;;;4974708;28;19940;-88
2022/08/25 14:37:01;;;;;;;;;;;;;;;;;;4981711;28;20012;-87
2022/08/25 14:39:27;;;;;;;;;;;;;;;;;;4992643;28;19944;-86
2022/08/25 14:41:53;;;;;;;;;;;;;;;;;;5005730;28;19901;-90
2022/08/25 14:44:18;;;;;;;;;;;;;;;;;;5002684;28;20597;-87
2022/08/25 14:46:43;;;;;;;;;;;;;;;;;;4973469;28;19934;-87
2022/08/25 14:49:08;;;;;;;;;;;;;;;;;;4982759;28;19913;-88
2022/08/25 14:51:34;;;;;;;;;;;;;;;;;;4973266;28;19921;-89
2022/08/25 14:53:59;;;;;;;;;;;;;;;;;;4956916;28;19940;-85
2022/08/25 14:56:24;;;;;;;;;;;;;;;;;;4984458;28;19936;-85
2022/08/25 14:58:49;;;;;;;;;;;;;;;;;;4993559;28;19940;-86
2022/08/25 15:01:14;;;;;;;;;;;;;;;;;;4992178;28;20756;-87
2022/08/25 15:03:41;;;;;;;;;;;;;;;;;;4991967;28;19943;-88
2022/08/25 15:06:06;;;;;;;;;;;;;;;;;;4972749;28;20301;-88
2022/08/25 15:11:15;;;;;;;;;;;;;;;;;;4992523;28;20765;-89
2022/08/25 15:13:43;;;;;;;;;;;;;;;;;;4976020;28;19916;-86
2022/08/25 15:16:08;;;;;;;;;;;;;;;;;;4975976;28;19960;-86
2022/08/25 15:18:33;;;;;;;;;;;;;;;;;;4992362;28;20378;-86
2022/08/25 15:20:58;;;;;;;;;;;;;;;;;;4991556;28;19910;-87
2022/08/25 15:23:23;;;;;;;;;;;;;;;;;;4991839;28;19914;-87
2022/08/25 15:25:48;;;;;;;;;;;;;;;;;;4992269;28;19913;-87
2022/08/25 15:28:14;;;;;;;;;;;;;;;;;;4973577;28;20374;-86
2022/08/25 15:30:39;;;;;;;;;;;;;;;;;;4991590;28;19964;-86
2022/08/25 15:33:05;;;;;;;;;;;;;;;;;;4975734;28;20282;-86
2022/08/25 15:35:30;;;;;;;;;;;;;;;;;;4992074;28;19914;-86
2022/08/25 15:37:55;;;;;;;;;;;;;;;;;;4991806;28;20400;-87
2022/08/25 15:40:20;;;;;;;;;;;;;;;;;;4991660;28;19913;-89
2022/08/25 15:42:46;;;;;;;;;;;;;;;;;;4975689;28;19906;-88
2022/08/25 15:45:11;;;;;;;;;;;;;;;;;;4991266;28;19917;-87
2022/08/25 15:47:36;;;;;;;;;;;;;;;;;;4972516;28;19912;-89
2022/08/25 15:50:01;;;;;;;;;;;;;;;;;;4986708;28;19976;-89
2022/08/25 15:52:27;;;;;;;;;;;;;;;;;;4975228;28;19906;-87
2022/08/25 15:54:52;;;;;;;;;;;;;;;;;;4991436;28;19952;-84
2022/08/25 15:57:17;;;;;;;;;;;;;;;;;;4992039;28;20000;-85
2022/08/25 15:59:42;;;;;;;;;;;;;;;;;;4991651;28;19913;-85
2022/08/25 16:02:08;;;;;;;;;;;;;;;;;;4991973;28;19941;-85
2022/08/25 16:04:34;;;;;;;;;;;;;;;;;;4975272;28;19992;-85
2022/08/25 16:07:00;;;;;;;;;;;;;;;;;;4991515;28;20093;-85
2022/08/25 16:09:25;;;;;;;;;;;;;;;;;;4990829;28;19910;-85
2022/08/25 16:11:50;;;;;;;;;;;;;;;;;;4971850;28;19921;-85
2022/08/25 16:14:15;;;;;;;;;;;;;;;;;;4991473;28;19956;-86
2022/08/25 16:16:41;;;;;;;;;;;;;;;;;;4991170;28;20379;-88
2022/08/25 16:19:06;;;;;;;;;;;;;;;;;;4992770;28;20589;-85
2022/08/25 16:21:33;;;;;;;;;;;;;;;;;;4991350;28;19910;-89
2022/08/25 16:24:01;;;;;;;;;;;;;;;;;;4991283;28;19917;-83
2022/08/25 16:26:26;;;;;;;;;;;;;;;;;;4974902;28;20362;-85
2022/08/25 16:28:51;;;;;;;;;;;;;;;;;;4991420;28;19985;-83
2022/08/25 16:31:17;;;;;;;;;;;;;;;;;;4972582;28;19913;-88
2022/08/25 16:33:43;;;;;;;;;;;;;;;;;;4991214;28;19936;-86
2022/08/25 16:36:08;;;;;;;;;;;;;;;;;;4974663;28;19905;-85
2022/08/25 16:38:33;;;;;;;;;;;;;;;;;;4991026;28;19933;-85
2022/08/25 16:40:59;;;;;;;;;;;;;;;;;;4971343;28;19913;-85
2022/08/25 16:43:25;;;;;;;;;;;;;;;;;;4975405;28;20004;-85
2022/08/25 16:45:51;;;;;;;;;;;;;;;;;;4974995;28;19965;-85
2022/08/25 16:48:16;;;;;;;;;;;;;;;;;;4991581;28;19956;-86